This is the latest recevied weather packets stored in our database for station/object CE3MXM-12. If no packets are shown the sender has not sent any weather packets the latest 1 day(s).
| Time | Temp. | Humidity | Pressure | Rain* | Wind** | Luminosity | Snow |
|---|---|---|---|---|---|---|---|
| 1777989003 | 18.89° C | 57% | 1012.5 hPa | - | 0 m/s | - | - |
| 1777988703 | 18.89° C | 55% | 1012.5 hPa | - | 0 m/s | - | - |
| 1777988403 | 18.89° C | 55% | 1012.7 hPa | - | 0.89 m/s, 315° | - | - |
| 1777988102 | 18.33° C | 53% | 1012.8 hPa | - | 0.89 m/s, 315° | - | - |
| 1777987802 | 18.33° C | 54% | 1012.7 hPa | - | 0.89 m/s, 340° | - | - |
| 1777987502 | 18.33° C | 52% | 1012.6 hPa | - | 1.34 m/s, 303° | - | - |
| 1777987202 | 18.33° C | 55% | 1012.6 hPa | - | 0 m/s | - | - |
| 1777986902 | 17.22° C | 56% | 1012.8 hPa | - | 0 m/s | - | - |
| 1777986602 | 16.67° C | 61% | 1012.9 hPa | - | 0 m/s | - | - |
| 1777986302 | 16.67° C | 65% | 1013 hPa | - | 0 m/s | - | - |
| 1777986002 | 16.11° C | 64% | 1013 hPa | - | 0 m/s | - | - |
| 1777985702 | 15.56° C | 65% | 1013.1 hPa | - | 0 m/s | - | - |
| 1777985402 | 15.56° C | 66% | 1012.8 hPa | - | 1.79 m/s, 316° | - | - |
| 1777985101 | 15° C | 66% | 1012.8 hPa | - | 0.89 m/s, 161° | - | - |
| 1777984801 | 14.44° C | 68% | 1013 hPa | - | 2.68 m/s, 200° | - | - |
| 1777984501 | 14.44° C | 70% | 1012.9 hPa | - | 1.79 m/s, 183° | - | - |
| 1777984201 | 13.89° C | 71% | 1013 hPa | - | 0 m/s | - | - |
| 1777983901 | 13.33° C | 73% | 1012.9 hPa | - | 1.79 m/s, 277° | - | - |
| 1777983601 | 13.33° C | 77% | 1013.2 hPa | - | 0.45 m/s, 315° | - | - |
| 1777983301 | 13.33° C | 78% | 1013.1 hPa | - | 1.34 m/s, 297° | - | - |
| 1777983001 | 12.78° C | 79% | 1013.3 hPa | - | 2.24 m/s, 308° | - | - |
| 1777982701 | 12.78° C | 81% | 1013.4 hPa | - | 2.68 m/s, 314° | - | - |
| 1777982400 | 12.78° C | 81% | 1013.3 hPa | - | 3.58 m/s, 312° | - | - |
| 1777982100 | 12.78° C | 82% | 1013 hPa | - | 0 m/s | - | - |
| 1777981800 | 12.22° C | 83% | 1013.3 hPa | - | 3.58 m/s, 294° | - | - |
* Rain since midnight (hover to see other rain measurements)
** Current wind speed in m/s (hover to see current wind gust speed)